createdAt,value
2023-04-24T00:01:02.074Z,85.79
2023-04-24T00:03:24.943Z,85.80
2023-04-24T00:05:46.669Z,87.61
2023-04-24T00:08:08.140Z,88.38
2023-04-24T00:10:29.622Z,89.18
2023-04-24T00:12:51.305Z,89.67
2023-04-24T00:15:12.758Z,90.32
2023-04-24T00:17:34.226Z,89.91
2023-04-24T00:20:02.826Z,90.83
2023-04-24T00:22:24.307Z,91.35
2023-04-24T00:24:45.844Z,90.35
2023-04-24T00:27:07.475Z,89.78
2023-04-24T00:29:29.611Z,88.79
2023-04-24T00:31:51.163Z,89.48
2023-04-24T00:34:13.594Z,88.62
2023-04-24T00:36:35.049Z,88.07
2023-04-24T00:38:56.520Z,88.36
2023-04-24T00:41:17.988Z,88.75
2023-04-24T00:43:40.368Z,88.75
2023-04-24T00:46:02.776Z,89.55
2023-04-24T00:48:25.051Z,88.61
2023-04-24T00:50:46.793Z,89.88
2023-04-24T00:53:08.328Z,89.34
2023-04-24T00:55:30.079Z,89.91
2023-04-24T00:57:52.045Z,89.91
2023-04-24T01:00:15.632Z,90.61
2023-04-24T01:02:41.176Z,91.42
2023-04-24T01:05:02.963Z,89.70
2023-04-24T01:07:24.956Z,89.69
2023-04-24T01:09:49.150Z,88.65
2023-04-24T01:12:10.744Z,87.94
2023-04-24T01:14:32.219Z,88.01
2023-04-24T01:16:53.720Z,88.60
2023-04-24T01:19:17.719Z,89.43
2023-04-24T01:21:39.973Z,88.78
2023-04-24T01:24:01.457Z,88.02
2023-04-24T01:26:23.700Z,86.69
2023-04-24T01:28:45.236Z,87.83
2023-04-24T01:31:06.988Z,87.01
2023-04-24T01:33:28.706Z,87.58
2023-04-24T01:35:50.194Z,87.43
2023-04-24T01:38:11.940Z,87.31
2023-04-24T01:40:33.559Z,85.86
2023-04-24T01:42:55.423Z,85.30
2023-04-24T01:45:16.942Z,85.26
2023-04-24T01:47:39.516Z,86.22
2023-04-24T01:50:01.046Z,84.90
2023-04-24T01:52:22.849Z,84.59
2023-04-24T01:54:44.446Z,84.50
2023-04-24T01:57:06.566Z,84.53
2023-04-24T01:59:29.512Z,84.60
2023-04-24T02:01:51.006Z,84.76
2023-04-24T02:04:12.638Z,83.85
2023-04-24T02:06:34.442Z,83.70
2023-04-24T02:08:55.918Z,83.75
2023-04-24T02:11:17.347Z,82.22
2023-04-24T02:13:38.792Z,81.27
2023-04-24T02:16:00.355Z,82.08
2023-04-24T02:18:23.711Z,81.31
2023-04-24T02:20:45.279Z,81.01
2023-04-24T02:23:06.776Z,81.31
2023-04-24T02:25:28.206Z,81.41
2023-04-24T02:27:49.628Z,81.35
2023-04-24T02:30:11.440Z,80.72
2023-04-24T02:32:33.095Z,80.61
2023-04-24T02:34:54.555Z,78.95
2023-04-24T02:37:16.015Z,79.86
2023-04-24T02:39:37.496Z,80.80
2023-04-24T02:41:59.260Z,80.93
2023-04-24T02:44:20.760Z,81.28
2023-04-24T02:46:43.060Z,81.55
2023-04-24T02:49:04.532Z,81.96
2023-04-24T02:51:26.171Z,81.36
2023-04-24T02:53:47.598Z,81.21
2023-04-24T02:56:09.079Z,81.09
2023-04-24T02:58:30.834Z,81.20
2023-04-24T03:00:59.155Z,80.74
2023-04-24T03:03:20.776Z,80.37
2023-04-24T03:05:42.286Z,80.09
2023-04-24T03:08:03.785Z,79.55
2023-04-24T03:10:25.487Z,79.35
2023-04-24T03:12:47.064Z,78.79
2023-04-24T03:15:09.238Z,80.04
2023-04-24T03:17:30.874Z,83.35
2023-04-24T03:19:52.433Z,82.82
2023-04-24T03:22:14.019Z,82.05
2023-04-24T03:24:35.631Z,82.95
2023-04-24T03:26:57.922Z,82.32
2023-04-24T03:29:19.372Z,83.96
2023-04-24T03:31:40.878Z,84.90
2023-04-24T03:34:02.625Z,86.00
2023-04-24T03:36:24.149Z,86.27
2023-04-24T03:38:46.063Z,86.70
2023-04-24T03:41:07.513Z,87.23
2023-04-24T03:43:28.938Z,87.90
2023-04-24T03:45:50.525Z,88.99
2023-04-24T03:48:12.047Z,87.53
2023-04-24T03:50:33.488Z,87.36
2023-04-24T03:52:54.921Z,85.96
2023-04-24T03:55:16.483Z,84.66
2023-04-24T03:57:37.916Z,84.04
2023-04-24T03:59:59.605Z,82.59
2023-04-24T04:02:21.146Z,83.92
2023-04-24T04:04:42.946Z,83.01
2023-04-24T04:07:04.649Z,84.30
2023-04-24T04:09:26.086Z,84.64
2023-04-24T04:11:47.612Z,85.22
2023-04-24T04:14:09.104Z,84.76
2023-04-24T04:16:30.942Z,83.68
2023-04-24T04:18:52.407Z,82.00
2023-04-24T04:21:13.947Z,81.58
2023-04-24T04:23:35.913Z,82.36
2023-04-24T04:25:57.427Z,81.56
2023-04-24T04:28:20.942Z,80.40
2023-04-24T04:30:42.429Z,81.00
2023-04-24T04:33:03.919Z,81.25
2023-04-24T04:35:25.990Z,82.01
2023-04-24T04:37:47.409Z,82.08
2023-04-24T04:40:12.721Z,82.37
2023-04-24T04:42:37.252Z,83.26
2023-04-24T04:44:59.799Z,81.84
2023-04-24T04:47:25.662Z,81.77
2023-04-24T04:49:47.177Z,81.76
2023-04-24T04:52:08.620Z,83.59
2023-04-24T04:54:30.100Z,83.80
2023-04-24T04:56:51.931Z,83.47
2023-04-24T04:59:13.912Z,83.88
2023-04-24T05:01:35.997Z,83.35
2023-04-24T05:03:57.645Z,84.69
2023-04-24T05:06:19.294Z,84.40
2023-04-24T05:08:40.990Z,85.79
2023-04-24T05:11:02.471Z,86.67
2023-04-24T05:13:35.655Z,85.56
2023-04-24T05:16:00.400Z,86.56
2023-04-24T05:18:21.802Z,84.41
2023-04-24T05:20:44.851Z,84.02
2023-04-24T05:23:06.446Z,82.58
2023-04-24T05:25:27.911Z,81.81
2023-04-24T05:27:49.389Z,82.07
2023-04-24T05:30:11.263Z,81.50
2023-04-24T05:32:32.785Z,79.54
2023-04-24T05:34:54.275Z,76.80
2023-04-24T05:37:15.725Z,76.81
2023-04-24T05:39:37.591Z,75.64
2023-04-24T05:41:59.467Z,74.67
2023-04-24T05:44:20.914Z,75.15
2023-04-24T05:46:42.433Z,74.09
2023-04-24T05:49:03.993Z,73.26
2023-04-24T05:51:25.621Z,72.10
2023-04-24T05:53:47.070Z,71.47
2023-04-24T05:56:08.688Z,71.90
2023-04-24T05:58:30.126Z,73.44
2023-04-24T06:00:51.572Z,73.35
2023-04-24T06:03:13.328Z,74.39
2023-04-24T06:05:36.028Z,68.42
2023-04-24T06:07:57.648Z,69.08
2023-04-24T06:10:19.152Z,69.27
2023-04-24T06:12:40.803Z,70.13
2023-04-24T06:15:02.274Z,71.68
2023-04-24T06:17:23.826Z,72.54
2023-04-24T06:19:45.632Z,73.74
2023-04-24T06:22:08.506Z,73.42
2023-04-24T06:24:31.901Z,74.68
2023-04-24T06:26:53.349Z,75.44
2023-04-24T06:29:14.840Z,77.06
2023-04-24T06:31:38.148Z,77.38
2023-04-24T06:33:59.829Z,78.12
2023-04-24T06:36:21.345Z,74.71
2023-04-24T06:38:42.951Z,77.58
2023-04-24T06:41:06.125Z,75.33
2023-04-24T06:43:27.604Z,76.09
2023-04-24T06:45:49.162Z,72.43
2023-04-24T06:48:11.168Z,71.06
2023-04-24T06:50:32.691Z,69.63
2023-04-24T06:52:54.169Z,73.48
2023-04-24T06:55:17.564Z,71.95
2023-04-24T06:57:39.086Z,65.01
2023-04-24T07:00:00.830Z,65.27
2023-04-24T07:02:22.523Z,64.45
2023-04-24T07:04:44.138Z,61.70
2023-04-24T07:07:07.093Z,64.19
2023-04-24T07:09:28.869Z,65.93
2023-04-24T07:11:51.094Z,62.58
2023-04-24T07:14:13.539Z,61.81
2023-04-24T07:16:35.216Z,61.16
2023-04-24T07:18:56.685Z,64.32
2023-04-24T07:21:18.117Z,63.07
2023-04-24T07:23:39.590Z,59.53
2023-04-24T07:26:01.371Z,59.62
2023-04-24T07:28:22.946Z,59.42
2023-04-24T07:30:44.567Z,58.64
2023-04-24T07:33:06.093Z,62.40
2023-04-24T07:35:28.197Z,60.85
2023-04-24T07:37:49.657Z,62.25
2023-04-24T07:40:11.652Z,63.14
2023-04-24T07:42:35.505Z,62.16
2023-04-24T07:44:57.004Z,63.20
2023-04-24T07:47:18.605Z,60.96
2023-04-24T07:49:40.109Z,60.84
2023-04-24T07:52:03.443Z,59.40
2023-04-24T07:54:24.934Z,56.58
2023-04-24T07:56:46.369Z,56.35
2023-04-24T07:59:07.812Z,56.79
2023-04-24T08:01:29.276Z,54.43
2023-04-24T08:03:51.794Z,54.42
2023-04-24T08:06:13.430Z,53.97
2023-04-24T08:08:35.040Z,52.95
2023-04-24T08:10:56.571Z,54.91
2023-04-24T08:13:18.134Z,54.20
2023-04-24T08:15:39.628Z,54.07
2023-04-24T08:18:01.367Z,55.49
2023-04-24T08:20:22.857Z,55.20
2023-04-24T08:22:44.652Z,53.61
2023-04-24T08:25:06.421Z,55.19
2023-04-24T08:27:28.457Z,55.82
2023-04-24T08:29:50.697Z,56.10
2023-04-24T08:32:12.134Z,56.77
2023-04-24T08:34:33.656Z,56.28
2023-04-24T08:36:55.251Z,55.52
2023-04-24T08:39:16.919Z,58.11
2023-04-24T08:41:38.960Z,55.75
2023-04-24T08:44:01.495Z,55.35
2023-04-24T08:46:23.829Z,54.60
2023-04-24T08:48:46.233Z,55.36
2023-04-24T08:51:09.380Z,53.06
2023-04-24T08:53:33.452Z,55.14
2023-04-24T08:55:56.603Z,54.46
2023-04-24T08:58:19.038Z,56.07
2023-04-24T09:00:45.094Z,54.88
2023-04-24T09:03:07.053Z,55.85
2023-04-24T09:05:29.057Z,55.83
2023-04-24T09:07:55.013Z,54.35
2023-04-24T09:10:16.686Z,53.73
2023-04-24T09:12:38.159Z,54.81
2023-04-24T09:15:01.215Z,57.34
2023-04-24T09:17:23.899Z,55.88
2023-04-24T09:19:45.485Z,56.09
2023-04-24T09:22:10.616Z,56.53
2023-04-24T09:24:32.100Z,56.11
2023-04-24T09:26:59.762Z,57.58
2023-04-24T09:29:21.225Z,55.43
2023-04-24T09:31:42.785Z,53.49
2023-04-24T09:34:08.690Z,58.16
2023-04-24T09:36:35.129Z,55.62
2023-04-24T09:39:03.743Z,53.76
2023-04-24T09:41:25.333Z,53.49
2023-04-24T09:43:46.805Z,51.58
2023-04-24T09:46:10.551Z,50.76
2023-04-24T09:48:37.789Z,49.50
2023-04-24T09:50:59.558Z,49.10
2023-04-24T09:53:25.739Z,49.85
2023-04-24T09:55:49.468Z,50.35
2023-04-24T09:58:11.378Z,51.76
2023-04-24T10:00:34.468Z,52.04
2023-04-24T10:02:57.024Z,51.93
2023-04-24T10:05:18.622Z,53.08
2023-04-24T10:07:40.051Z,51.89
2023-04-24T10:10:01.958Z,51.71
2023-04-24T10:12:24.098Z,51.48
2023-04-24T10:14:48.557Z,51.09
2023-04-24T10:17:10.252Z,51.85
2023-04-24T10:19:32.633Z,50.40
2023-04-24T10:21:55.679Z,50.65
2023-04-24T10:24:19.440Z,50.36
2023-04-24T10:26:41.815Z,51.63
2023-04-24T10:29:03.439Z,52.10
2023-04-24T10:31:26.193Z,53.04
2023-04-24T10:33:48.014Z,53.93
2023-04-24T10:36:11.806Z,54.45
2023-04-24T10:38:33.421Z,55.76
2023-04-24T10:41:17.010Z,55.21
2023-04-24T10:43:40.903Z,58.19
2023-04-24T10:46:07.162Z,56.58
2023-04-24T10:48:28.797Z,56.17
2023-04-24T10:50:54.491Z,54.12
2023-04-24T10:53:18.622Z,53.45
2023-04-24T10:55:42.362Z,53.62
2023-04-24T10:58:05.216Z,54.67
2023-04-24T11:00:28.549Z,53.66
2023-04-24T11:02:51.646Z,54.24
2023-04-24T11:05:16.805Z,53.67
2023-04-24T11:08:22.195Z,53.19
2023-04-24T11:10:48.399Z,50.57
2023-04-24T11:13:10.993Z,51.45
2023-04-24T11:15:33.792Z,52.56
2023-04-24T11:17:56.874Z,51.75
2023-04-24T11:20:27.606Z,51.30
2023-04-24T11:22:54.232Z,53.66
2023-04-24T11:25:17.304Z,54.30
2023-04-24T11:27:47.093Z,53.45
2023-04-24T11:30:09.479Z,51.95
2023-04-24T11:32:34.095Z,51.02
2023-04-24T11:35:02.334Z,49.78
2023-04-24T11:37:25.613Z,50.30
2023-04-24T11:39:47.450Z,51.43
2023-04-24T11:42:10.404Z,51.21
2023-04-24T11:44:32.934Z,53.02
2023-04-24T11:46:57.188Z,53.71
2023-04-24T11:49:18.942Z,53.37
2023-04-24T11:51:51.379Z,55.03
2023-04-24T11:54:14.366Z,59.13
2023-04-24T11:56:35.854Z,64.12
2023-04-24T11:58:57.409Z,67.97
2023-04-24T12:01:18.895Z,70.26
2023-04-24T12:03:41.292Z,74.41
2023-04-24T12:06:08.803Z,78.63
2023-04-24T12:08:30.525Z,76.01
2023-04-24T12:10:52.730Z,74.95
2023-04-24T12:13:14.540Z,74.47
2023-04-24T12:15:36.210Z,71.04
2023-04-24T12:17:58.612Z,65.17
2023-04-24T12:20:29.403Z,63.77
2023-04-24T12:22:55.827Z,63.73
2023-04-24T12:25:19.598Z,62.39
2023-04-24T12:27:41.217Z,61.47
2023-04-24T12:30:05.249Z,59.96
2023-04-24T12:32:28.342Z,61.86
2023-04-24T12:34:54.413Z,60.79
2023-04-24T12:37:15.862Z,60.50
2023-04-24T12:39:37.347Z,59.87
2023-04-24T12:42:00.280Z,58.99
2023-04-24T12:44:21.773Z,61.67
2023-04-24T12:46:43.242Z,61.51
2023-04-24T12:49:04.725Z,60.49
2023-04-24T12:51:26.177Z,59.90
2023-04-24T12:53:47.651Z,63.87
2023-04-24T12:56:09.085Z,60.14
2023-04-24T12:58:30.735Z,60.64
2023-04-24T13:00:52.341Z,59.53
2023-04-24T13:03:14.403Z,60.65
2023-04-24T13:05:36.053Z,61.62
2023-04-24T13:07:58.508Z,60.18
2023-04-24T13:10:20.238Z,61.45
2023-04-24T13:12:41.887Z,58.78
2023-04-24T13:15:04.473Z,58.21
2023-04-24T13:17:26.012Z,60.59
2023-04-24T13:19:47.512Z,58.67
2023-04-24T13:22:11.878Z,58.02
2023-04-24T13:24:33.965Z,61.94
2023-04-24T13:26:55.633Z,62.03
2023-04-24T13:29:17.096Z,60.88
2023-04-24T13:31:38.606Z,55.87
2023-04-24T13:34:00.108Z,54.40
2023-04-24T13:36:21.590Z,50.84
2023-04-24T13:38:43.047Z,50.38
2023-04-24T13:41:04.588Z,47.69
2023-04-24T13:43:26.031Z,47.57
2023-04-24T13:45:47.735Z,45.73
2023-04-24T13:48:10.331Z,44.65
2023-04-24T13:50:31.871Z,45.25
2023-04-24T13:52:53.473Z,45.50
2023-04-24T13:55:15.006Z,41.71
2023-04-24T13:57:36.551Z,40.96
2023-04-24T14:00:02.298Z,43.88
2023-04-24T14:02:24.024Z,42.31
2023-04-24T14:04:45.727Z,43.78
2023-04-24T14:07:07.313Z,41.90
2023-04-24T14:09:28.775Z,40.35
2023-04-24T14:11:50.368Z,42.73
2023-04-24T14:14:12.508Z,43.49
2023-04-24T14:16:34.103Z,39.95
2023-04-24T14:18:55.859Z,39.32
2023-04-24T14:21:17.430Z,40.32
2023-04-24T14:23:38.916Z,42.05
2023-04-24T14:26:00.739Z,42.30
2023-04-24T14:28:22.478Z,43.39
2023-04-24T14:30:44.062Z,45.32
2023-04-24T14:33:05.526Z,48.15
2023-04-24T14:35:28.206Z,49.51
2023-04-24T14:37:50.811Z,50.58
2023-04-24T14:40:29.895Z,51.41
2023-04-24T14:42:54.074Z,54.15
2023-04-24T14:45:15.875Z,54.40
2023-04-24T14:47:38.125Z,53.88
2023-04-24T14:49:59.867Z,53.81
2023-04-24T14:52:21.843Z,55.44
2023-04-24T14:54:43.865Z,55.80
2023-04-24T14:57:05.604Z,56.23
2023-04-24T14:59:28.062Z,56.39
2023-04-24T15:01:49.640Z,56.15
2023-04-24T15:04:11.761Z,57.23
2023-04-24T15:06:33.839Z,57.61
2023-04-24T15:08:55.289Z,58.20
2023-04-24T15:11:16.783Z,57.08
2023-04-24T15:13:38.744Z,59.90
2023-04-24T15:16:00.481Z,59.44
2023-04-24T15:18:22.015Z,61.80
2023-04-24T15:20:43.787Z,60.68
2023-04-24T15:23:06.133Z,62.12
2023-04-24T15:25:27.733Z,64.16
2023-04-24T15:27:49.420Z,65.54
2023-04-24T15:30:11.910Z,67.11
2023-04-24T15:32:33.594Z,68.58
2023-04-24T15:35:07.072Z,69.97
2023-04-24T15:37:30.496Z,72.43
2023-04-24T15:39:52.006Z,68.83
2023-04-24T15:42:13.455Z,68.03
2023-04-24T15:44:34.938Z,66.48
2023-04-24T15:46:56.381Z,68.51
2023-04-24T15:49:18.529Z,66.49
2023-04-24T15:51:40.162Z,64.08
2023-04-24T15:54:01.597Z,63.04
2023-04-24T15:56:24.048Z,63.26
2023-04-24T15:58:46.169Z,60.89
2023-04-24T16:01:08.194Z,59.72
2023-04-24T16:03:29.829Z,58.12
2023-04-24T16:05:51.457Z,59.04
2023-04-24T16:08:15.369Z,58.96
2023-04-24T16:10:36.864Z,56.83
2023-04-24T16:12:58.626Z,56.51
2023-04-24T16:15:21.511Z,56.21
2023-04-24T16:17:42.966Z,54.47
2023-04-24T16:20:05.389Z,54.54
2023-04-24T16:22:26.855Z,56.82
2023-04-24T16:24:48.451Z,57.93
2023-04-24T16:27:09.974Z,58.69
2023-04-24T16:29:32.209Z,57.59
2023-04-24T16:31:55.095Z,59.08
2023-04-24T16:34:16.630Z,57.83
2023-04-24T16:36:38.256Z,58.39
2023-04-24T16:39:01.104Z,57.68
2023-04-24T16:41:22.652Z,58.05
2023-04-24T16:43:44.123Z,56.66
2023-04-24T16:46:05.811Z,57.03
2023-04-24T16:48:27.371Z,59.07
2023-04-24T16:50:48.802Z,59.16
2023-04-24T16:53:10.385Z,60.55
2023-04-24T16:55:31.989Z,61.36
2023-04-24T16:57:53.541Z,61.89
2023-04-24T17:00:15.455Z,63.68
2023-04-24T17:02:37.005Z,63.98
2023-04-24T17:04:58.702Z,62.24
2023-04-24T17:07:20.264Z,62.95
2023-04-24T17:09:42.675Z,62.15
2023-04-24T17:12:04.416Z,64.70
2023-04-24T17:14:26.601Z,64.99
2023-04-24T17:16:48.088Z,66.27
2023-04-24T17:19:09.661Z,67.58
2023-04-24T17:21:31.667Z,68.27
2023-04-24T17:23:53.524Z,69.63
2023-04-24T17:26:15.311Z,72.97
2023-04-24T17:28:37.016Z,77.67
2023-04-24T17:30:59.300Z,79.01
2023-04-24T17:33:21.372Z,81.38
2023-04-24T17:35:42.893Z,85.97
2023-04-24T17:38:04.343Z,88.83
2023-04-24T17:40:25.818Z,90.89
2023-04-24T17:42:47.292Z,92.20
2023-04-24T17:45:09.412Z,91.03
2023-04-24T17:47:30.872Z,90.78
2023-04-24T17:49:52.900Z,88.39
2023-04-24T17:52:17.481Z,88.27
2023-04-24T17:54:39.026Z,87.75
2023-04-24T17:57:00.548Z,85.70
2023-04-24T17:59:23.809Z,86.74
2023-04-24T18:01:45.396Z,85.57
2023-04-24T18:04:07.099Z,86.05
2023-04-24T18:06:28.727Z,85.92
2023-04-24T18:08:50.386Z,86.68
2023-04-24T18:11:12.362Z,86.36
2023-04-24T18:13:33.863Z,87.18
2023-04-24T18:15:55.365Z,87.50
2023-04-24T18:18:18.138Z,87.30
2023-04-24T18:20:39.796Z,87.14
2023-04-24T18:23:03.001Z,88.86
2023-04-24T18:25:28.287Z,87.77
2023-04-24T18:27:49.822Z,88.32
2023-04-24T18:30:14.386Z,88.02
2023-04-24T18:32:36.358Z,89.40
2023-04-24T18:34:57.948Z,89.65
2023-04-24T18:37:19.430Z,89.56
2023-04-24T18:39:41.004Z,89.71
2023-04-24T18:42:02.489Z,90.61
2023-04-24T18:44:26.051Z,90.34
2023-04-24T18:46:47.651Z,90.69
2023-04-24T18:49:09.303Z,91.31
2023-04-24T18:51:33.974Z,90.83
2023-04-24T18:53:57.426Z,90.33
2023-04-24T18:56:19.403Z,90.77
2023-04-24T18:58:44.367Z,90.94
2023-04-24T19:01:07.588Z,90.97
2023-04-24T19:03:30.120Z,90.29
2023-04-24T19:05:51.752Z,90.48
2023-04-24T19:08:13.227Z,90.70
2023-04-24T19:10:35.799Z,89.90
2023-04-24T19:12:57.384Z,89.72
2023-04-24T19:15:19.005Z,89.87
2023-04-24T19:17:40.604Z,89.43
2023-04-24T19:20:02.064Z,90.23
2023-04-24T19:22:23.768Z,89.67
2023-04-24T19:24:46.134Z,88.92
2023-04-24T19:27:07.559Z,89.03
2023-04-24T19:29:29.044Z,89.56
2023-04-24T19:31:50.741Z,89.66
2023-04-24T19:34:12.295Z,89.34
2023-04-24T19:36:33.952Z,88.92
2023-04-24T19:38:55.541Z,89.28
2023-04-24T19:41:17.279Z,88.19
2023-04-24T19:43:39.939Z,87.99
2023-04-24T19:46:01.555Z,86.53
2023-04-24T19:48:23.401Z,86.48
2023-04-24T19:50:44.962Z,86.74
2023-04-24T19:53:09.298Z,85.83
2023-04-24T19:55:31.420Z,84.82
2023-04-24T19:57:52.877Z,85.98
2023-04-24T20:00:14.810Z,85.33
2023-04-24T20:02:36.413Z,85.20
2023-04-24T20:04:58.093Z,84.98
2023-04-24T20:07:19.650Z,85.13
2023-04-24T20:09:41.107Z,84.90
2023-04-24T20:12:02.850Z,85.29
2023-04-24T20:14:24.358Z,84.24
2023-04-24T20:16:45.804Z,81.96
2023-04-24T20:19:08.091Z,81.51
2023-04-24T20:21:29.569Z,81.89
2023-04-24T20:23:52.353Z,81.72
2023-04-24T20:26:13.903Z,81.27
2023-04-24T20:28:35.751Z,80.65
2023-04-24T20:30:58.515Z,80.33
2023-04-24T20:33:20.911Z,79.19
2023-04-24T20:35:42.386Z,78.93
2023-04-24T20:38:03.869Z,79.25
2023-04-24T20:40:25.406Z,79.45
2023-04-24T20:42:46.907Z,78.73
2023-04-24T20:45:08.871Z,78.41
2023-04-24T20:47:30.962Z,77.90
2023-04-24T20:49:52.582Z,77.86
2023-04-24T20:52:14.010Z,77.31
2023-04-24T20:54:35.765Z,77.20
2023-04-24T20:56:58.038Z,76.99
2023-04-24T20:59:19.552Z,78.06
2023-04-24T21:01:41.864Z,77.25
2023-04-24T21:04:03.742Z,77.35
2023-04-24T21:06:25.349Z,77.13
2023-04-24T21:08:47.001Z,77.36
2023-04-24T21:11:08.430Z,77.64
2023-04-24T21:13:29.953Z,76.57
2023-04-24T21:15:52.074Z,77.65
2023-04-24T21:18:13.908Z,77.34
2023-04-24T21:20:35.571Z,76.93
2023-04-24T21:22:57.070Z,78.70
2023-04-24T21:25:18.609Z,77.36
2023-04-24T21:27:41.285Z,77.04
2023-04-24T21:30:06.359Z,76.93
2023-04-24T21:32:27.915Z,78.55
2023-04-24T21:34:49.417Z,77.86
2023-04-24T21:37:11.231Z,77.74
2023-04-24T21:39:32.681Z,77.18
2023-04-24T21:41:54.408Z,77.51
2023-04-24T21:44:16.213Z,78.06
2023-04-24T21:46:37.866Z,77.55
2023-04-24T21:48:59.397Z,77.03
2023-04-24T21:51:20.841Z,76.99
2023-04-24T21:53:42.396Z,76.66
2023-04-24T21:56:04.023Z,76.58
2023-04-24T21:58:25.734Z,76.33
2023-04-24T22:00:47.196Z,76.58
2023-04-24T22:03:08.782Z,78.89
2023-04-24T22:05:30.870Z,77.89
2023-04-24T22:07:54.234Z,79.48
2023-04-24T22:10:16.413Z,79.44
2023-04-24T22:12:37.890Z,81.33
2023-04-24T22:15:00.507Z,81.05
2023-04-24T22:17:21.932Z,80.50
2023-04-24T22:19:43.837Z,80.08
2023-04-24T22:22:05.304Z,79.53
2023-04-24T22:24:26.764Z,79.62
2023-04-24T22:26:48.303Z,78.74
2023-04-24T22:29:10.079Z,80.29
2023-04-24T22:31:31.803Z,79.48
2023-04-24T22:33:53.506Z,79.37
2023-04-24T22:36:15.244Z,80.81
2023-04-24T22:38:36.759Z,81.21
2023-04-24T22:40:58.315Z,80.43
2023-04-24T22:43:19.866Z,80.75
2023-04-24T22:45:41.467Z,81.00
2023-04-24T22:48:02.972Z,81.19
2023-04-24T22:50:25.523Z,82.55
2023-04-24T22:52:47.646Z,80.96
2023-04-24T22:55:10.013Z,80.04
2023-04-24T22:57:31.479Z,80.88
2023-04-24T22:59:54.068Z,81.29
2023-04-24T23:02:16.902Z,81.49
2023-04-24T23:04:38.531Z,81.99
2023-04-24T23:06:59.952Z,81.13
2023-04-24T23:09:21.534Z,82.89
2023-04-24T23:11:43.183Z,84.33
2023-04-24T23:14:04.599Z,86.27
2023-04-24T23:16:26.182Z,87.62
2023-04-24T23:18:47.637Z,86.31
2023-04-24T23:21:09.171Z,86.91
2023-04-24T23:23:30.607Z,87.18
2023-04-24T23:25:52.061Z,87.75
2023-04-24T23:28:13.546Z,89.56
2023-04-24T23:30:35.043Z,89.44
2023-04-24T23:32:56.593Z,88.49
2023-04-24T23:35:18.075Z,89.54
2023-04-24T23:37:39.557Z,89.71
2023-04-24T23:40:01.184Z,89.38
2023-04-24T23:42:22.722Z,89.83
2023-04-24T23:44:44.173Z,90.51
2023-04-24T23:47:05.729Z,91.31
2023-04-24T23:49:27.383Z,90.99
2023-04-24T23:51:49.589Z,90.62
2023-04-24T23:54:11.288Z,90.32
2023-04-24T23:56:32.961Z,90.65
2023-04-24T23:58:54.556Z,89.77
